createdAt,value
2017-05-31T00:00:14.304Z,0
2017-05-31T00:01:59.691Z,0
2017-05-31T00:03:14.332Z,0
2017-05-31T00:03:59.762Z,0
2017-05-31T00:05:59.794Z,0
2017-05-31T00:07:59.544Z,0
2017-05-31T00:08:59.871Z,0
2017-05-31T00:10:14.515Z,0
2017-05-31T00:10:59.920Z,0
2017-05-31T00:11:59.960Z,0
2017-05-31T00:12:59.972Z,0
2017-05-31T00:15:14.346Z,0
2017-05-31T00:16:00.054Z,0
2017-05-31T00:17:14.697Z,0
2017-05-31T00:17:59.804Z,0
2017-05-31T00:19:14.746Z,0
2017-05-31T00:20:00.158Z,0
2017-05-31T00:20:59.884Z,0
2017-05-31T00:22:00.211Z,0
2017-05-31T00:23:14.857Z,0
2017-05-31T00:24:14.580Z,0
2017-05-31T00:24:59.984Z,0
2017-05-31T00:26:00.011Z,0
2017-05-31T00:27:00.037Z,0
2017-05-31T00:28:00.065Z,0
2017-05-31T00:29:00.394Z,0
2017-05-31T00:30:15.037Z,0
2017-05-31T00:31:15.059Z,0
2017-05-31T00:32:14.784Z,0
2017-05-31T00:33:15.113Z,0
2017-05-31T00:34:00.520Z,0
2017-05-31T00:35:14.909Z,0
2017-05-31T00:35:59.964Z,0
2017-05-31T00:36:59.993Z,0
2017-05-31T00:37:59.714Z,0
2017-05-31T00:39:00.650Z,0
2017-05-31T00:41:15.072Z,0
2017-05-31T00:42:00.732Z,0
2017-05-31T00:43:15.371Z,0
2017-05-31T00:44:00.786Z,0
2017-05-31T00:45:00.818Z,0
2017-05-31T00:46:00.887Z,0
2017-05-31T00:47:15.172Z,0
2017-05-31T00:48:00.902Z,0
2017-05-31T00:49:00.911Z,0
2017-05-31T00:50:15.253Z,0
2017-05-31T00:51:00.967Z,0
2017-05-31T00:52:00.994Z,0
2017-05-31T00:53:01.079Z,0
2017-05-31T00:54:01.041Z,0
2017-05-31T00:55:15.685Z,0
2017-05-31T00:56:00.844Z,0
2017-05-31T00:57:01.121Z,0
2017-05-31T00:58:15.760Z,0
2017-05-31T00:59:15.785Z,0
2017-05-31T01:00:15.512Z,0
2017-05-31T01:01:01.221Z,0
2017-05-31T01:02:30.480Z,0
2017-05-31T01:03:01.276Z,0
2017-05-31T01:04:15.916Z,0
2017-05-31T01:06:01.352Z,0
2017-05-31T01:07:01.018Z,0
2017-05-31T01:08:01.399Z,0
2017-05-31T01:09:01.430Z,0
2017-05-31T01:10:01.155Z,0
2017-05-31T01:11:01.180Z,0
2017-05-31T01:12:01.509Z,0
2017-05-31T01:13:01.231Z,0
2017-05-31T01:14:01.254Z,0
2017-05-31T01:15:16.208Z,0
2017-05-31T01:16:01.305Z,0
2017-05-31T01:17:01.330Z,0
2017-05-31T01:18:01.693Z,0
2017-05-31T01:19:01.388Z,0
2017-05-31T01:21:01.744Z,0
2017-05-31T01:22:16.076Z,0
2017-05-31T01:23:01.186Z,0
2017-05-31T01:25:01.537Z,0
2017-05-31T01:26:01.870Z,0
2017-05-31T01:27:01.591Z,0
2017-05-31T01:28:01.925Z,0
2017-05-31T01:29:01.947Z,0
2017-05-31T01:30:01.975Z,0
2017-05-31T01:31:16.612Z,0
2017-05-31T01:32:16.639Z,0
2017-05-31T01:33:02.112Z,0
2017-05-31T01:34:16.389Z,0
2017-05-31T01:35:01.797Z,0
2017-05-31T01:36:01.824Z,0
2017-05-31T01:37:16.769Z,0
2017-05-31T01:38:16.792Z,0
2017-05-31T01:39:02.209Z,0
2017-05-31T01:40:01.629Z,0
2017-05-31T01:42:02.286Z,0
2017-05-31T01:43:02.306Z,0
2017-05-31T01:45:02.419Z,0
2017-05-31T01:46:02.384Z,0
2017-05-31T01:47:02.420Z,0
2017-05-31T01:48:02.437Z,0
2017-05-31T01:49:17.078Z,0
2017-05-31T01:50:17.107Z,0
2017-05-31T01:51:02.214Z,0
2017-05-31T01:52:02.239Z,0
2017-05-31T01:53:02.566Z,0
2017-05-31T01:54:17.205Z,0
2017-05-31T01:55:02.316Z,0
2017-05-31T01:56:02.341Z,0
2017-05-31T01:57:02.669Z,0
2017-05-31T01:58:02.694Z,0
2017-05-31T01:59:02.719Z,0
2017-05-31T02:00:17.064Z,0
2017-05-31T02:01:02.768Z,0
2017-05-31T02:02:17.419Z,0
2017-05-31T02:03:17.438Z,0
2017-05-31T02:04:32.083Z,0
2017-05-31T02:05:02.572Z,0
2017-05-31T02:06:02.907Z,0
2017-05-31T02:07:17.544Z,0
2017-05-31T02:09:02.979Z,0
2017-05-31T02:10:17.314Z,0
2017-05-31T02:11:03.022Z,0
2017-05-31T02:12:03.051Z,0
2017-05-31T02:13:03.076Z,0
2017-05-31T02:14:03.100Z,0
2017-05-31T02:15:03.129Z,0
2017-05-31T02:16:03.154Z,0
2017-05-31T02:17:03.180Z,0
2017-05-31T02:18:17.823Z,0
2017-05-31T02:19:03.236Z,0
2017-05-31T02:20:03.263Z,0
2017-05-31T02:21:03.284Z,0
2017-05-31T02:23:20.802Z,0
2017-05-31T02:24:03.359Z,0
2017-05-31T02:25:18.210Z,0
2017-05-31T02:26:03.413Z,0
2017-05-31T02:27:18.060Z,0
2017-05-31T02:28:03.167Z,0
2017-05-31T02:29:03.490Z,0
2017-05-31T02:30:03.217Z,0
2017-05-31T02:31:03.545Z,0
2017-05-31T02:32:03.628Z,0
2017-05-31T02:33:03.602Z,0
2017-05-31T02:34:03.313Z,0
2017-05-31T02:35:03.343Z,0
2017-05-31T02:36:18.291Z,0
2017-05-31T02:38:03.727Z,0
2017-05-31T02:39:03.748Z,0
2017-05-31T02:40:03.769Z,0
2017-05-31T02:41:18.111Z,0
2017-05-31T02:42:03.211Z,0
2017-05-31T02:43:03.543Z,0
2017-05-31T02:44:03.577Z,0
2017-05-31T02:45:03.597Z,0
2017-05-31T02:46:03.930Z,0
2017-05-31T02:47:03.702Z,0
2017-05-31T02:48:03.424Z,0
2017-05-31T02:49:03.707Z,0
2017-05-31T02:50:03.422Z,0
2017-05-31T02:51:03.756Z,0
2017-05-31T02:52:04.082Z,0
2017-05-31T02:53:04.108Z,0
2017-05-31T02:54:18.745Z,0
2017-05-31T02:55:04.154Z,0
2017-05-31T02:56:04.179Z,0
2017-05-31T02:57:18.225Z,0
2017-05-31T02:58:18.848Z,5
2017-05-31T02:59:18.873Z,5
2017-05-31T03:00:04.281Z,5
2017-05-31T03:01:04.310Z,5
2017-05-31T03:02:04.033Z,5
2017-05-31T03:05:04.414Z,5
2017-05-31T03:06:18.756Z,10
2017-05-31T03:07:18.776Z,10
2017-05-31T03:08:04.538Z,10
2017-05-31T03:09:03.604Z,10
2017-05-31T03:10:03.932Z,10
2017-05-31T03:12:04.593Z,15
2017-05-31T03:13:19.232Z,15
2017-05-31T03:14:04.646Z,15
2017-05-31T03:15:04.062Z,15
2017-05-31T03:16:04.090Z,15
2017-05-31T03:17:04.415Z,10
2017-05-31T03:18:04.437Z,15
2017-05-31T03:19:04.463Z,15
2017-05-31T03:20:04.792Z,15
2017-05-31T03:21:04.820Z,15
2017-05-31T03:22:04.844Z,20
2017-05-31T03:23:19.183Z,20
2017-05-31T03:24:04.893Z,20
2017-05-31T03:25:19.539Z,20
2017-05-31T03:26:04.340Z,20
2017-05-31T03:27:19.599Z,25
2017-05-31T03:28:04.996Z,20
2017-05-31T03:29:19.641Z,20
2017-05-31T03:30:05.103Z,20
2017-05-31T03:31:05.080Z,20
2017-05-31T03:33:04.822Z,20
2017-05-31T03:34:05.200Z,30
2017-05-31T03:35:04.874Z,35
2017-05-31T03:36:19.827Z,40
2017-05-31T03:37:04.926Z,35
2017-05-31T03:38:05.253Z,30
2017-05-31T03:39:04.975Z,30
2017-05-31T03:40:04.700Z,30
2017-05-31T03:41:05.331Z,25
2017-05-31T03:42:19.975Z,20
2017-05-31T03:43:05.382Z,20
2017-05-31T03:44:05.403Z,20
2017-05-31T03:45:20.098Z,25
2017-05-31T03:47:05.486Z,15
2017-05-31T03:48:05.558Z,10
2017-05-31T03:49:05.531Z,10
2017-05-31T03:51:04.979Z,10
2017-05-31T03:52:05.613Z,15
2017-05-31T03:53:20.251Z,15
2017-05-31T03:54:05.664Z,15
2017-05-31T03:55:05.686Z,20
2017-05-31T03:56:05.406Z,20
2017-05-31T03:57:05.433Z,20
2017-05-31T03:58:05.790Z,25
2017-05-31T03:59:05.488Z,25
2017-05-31T04:00:20.133Z,25
2017-05-31T04:01:05.843Z,30
2017-05-31T04:02:05.871Z,25
2017-05-31T04:04:05.919Z,20
2017-05-31T04:05:05.942Z,20
2017-05-31T04:06:05.676Z,20
2017-05-31T04:07:05.693Z,20
2017-05-31T04:08:06.021Z,25
2017-05-31T04:09:05.742Z,25
2017-05-31T04:10:20.387Z,20
2017-05-31T04:11:20.158Z,25
2017-05-31T04:12:05.520Z,25
2017-05-31T04:13:05.843Z,25
2017-05-31T04:15:20.814Z,25
2017-05-31T04:16:05.922Z,25
2017-05-31T04:17:05.948Z,30
2017-05-31T04:18:06.272Z,25
2017-05-31T04:19:05.999Z,25
2017-05-31T04:20:06.333Z,20
2017-05-31T04:21:06.048Z,25
2017-05-31T04:22:05.772Z,20
2017-05-31T04:23:06.403Z,25
2017-05-31T04:24:20.739Z,30
2017-05-31T04:25:06.468Z,30
2017-05-31T04:26:06.479Z,30
2017-05-31T04:27:20.817Z,30
2017-05-31T04:28:06.524Z,30
2017-05-31T04:29:21.172Z,30
2017-05-31T04:30:06.575Z,25
2017-05-31T04:31:06.601Z,25
2017-05-31T04:32:20.940Z,25
2017-05-31T04:33:06.659Z,20
2017-05-31T04:34:06.679Z,20
2017-05-31T04:35:06.702Z,20
2017-05-31T04:36:06.731Z,20
2017-05-31T04:37:06.757Z,20
2017-05-31T04:38:06.483Z,15
2017-05-31T04:39:06.866Z,15
2017-05-31T04:40:06.534Z,15
2017-05-31T04:41:06.867Z,20
2017-05-31T04:42:06.888Z,20
2017-05-31T04:43:06.912Z,20
2017-05-31T04:44:21.252Z,20
2017-05-31T04:45:06.720Z,20
2017-05-31T04:46:06.993Z,25
2017-05-31T04:47:06.410Z,30
2017-05-31T04:48:21.656Z,35
2017-05-31T04:50:06.789Z,40
2017-05-31T04:51:07.114Z,45
2017-05-31T04:52:07.152Z,50
2017-05-31T04:53:07.165Z,50
2017-05-31T04:54:06.886Z,45
2017-05-31T04:55:21.832Z,45
2017-05-31T04:56:06.943Z,50
2017-05-31T04:57:07.280Z,55
2017-05-31T04:58:07.292Z,60
2017-05-31T04:59:07.019Z,50
2017-05-31T05:00:21.660Z,40
2017-05-31T05:01:07.067Z,40
2017-05-31T05:02:07.393Z,35
2017-05-31T05:03:07.417Z,35
2017-05-31T05:04:22.066Z,30
2017-05-31T05:05:07.469Z,30
2017-05-31T05:07:07.521Z,35
2017-05-31T05:08:07.241Z,45
2017-05-31T05:10:36.534Z,50
2017-05-31T05:11:07.621Z,50
2017-05-31T05:12:07.647Z,60
2017-05-31T05:13:07.671Z,65
2017-05-31T05:14:07.700Z,55
2017-05-31T05:15:07.420Z,45
2017-05-31T05:16:22.374Z,40
2017-05-31T05:17:07.475Z,35
2017-05-31T05:18:07.798Z,35
2017-05-31T05:19:22.445Z,50
2017-05-31T05:20:22.467Z,50
2017-05-31T05:21:07.880Z,50
2017-05-31T05:23:07.631Z,50
2017-05-31T05:24:07.651Z,60
2017-05-31T05:25:22.305Z,70
2017-05-31T05:26:07.703Z,95
2017-05-31T05:27:08.037Z,125
2017-05-31T05:28:08.053Z,220
2017-05-31T05:29:22.701Z,625
2017-05-31T05:30:22.725Z,205
2017-05-31T05:32:08.161Z,305
2017-05-31T05:33:07.893Z,165
2017-05-31T05:35:22.854Z,330
2017-05-31T05:36:08.271Z,335
2017-05-31T05:37:07.986Z,290
2017-05-31T05:38:08.011Z,205
2017-05-31T05:39:08.344Z,110
2017-05-31T05:40:08.070Z,100
2017-05-31T05:41:08.400Z,115
2017-05-31T05:42:07.819Z,135
2017-05-31T05:43:08.453Z,185
2017-05-31T05:44:08.169Z,545
2017-05-31T05:45:08.196Z,395
2017-05-31T05:46:08.526Z,425
2017-05-31T05:47:08.555Z,295
2017-05-31T05:48:23.199Z,260
2017-05-31T05:49:08.310Z,275
2017-05-31T05:50:08.636Z,915
2017-05-31T05:51:08.662Z,325
2017-05-31T05:52:08.393Z,295
2017-05-31T05:53:08.719Z,260
2017-05-31T05:54:08.209Z,350
2017-05-31T05:55:22.785Z,350
2017-05-31T05:56:23.422Z,430
2017-05-31T05:57:09.132Z,775
2017-05-31T05:58:08.852Z,1160
2017-05-31T05:59:08.879Z,1075
2017-05-31T06:00:08.604Z,1010
2017-05-31T06:01:08.938Z,1100
2017-05-31T06:02:08.358Z,1220
2017-05-31T06:03:08.997Z,1325
2017-05-31T06:04:09.026Z,1210
2017-05-31T06:06:09.088Z,1230
2017-05-31T06:07:23.730Z,1270
2017-05-31T06:08:09.144Z,1370
2017-05-31T06:09:09.176Z,1260
2017-05-31T06:10:08.905Z,435
2017-05-31T06:11:08.631Z,1275
2017-05-31T06:12:08.971Z,1350
2017-05-31T06:13:09.000Z,1270
2017-05-31T06:14:23.962Z,1325
2017-05-31T06:15:09.375Z,1055
2017-05-31T06:16:09.407Z,475
2017-05-31T06:17:09.133Z,1250
2017-05-31T06:18:09.170Z,495
2017-05-31T06:19:24.118Z,1225
2017-05-31T06:21:09.268Z,1245
2017-05-31T06:22:09.611Z,1340
2017-05-31T06:24:09.369Z,350
2017-05-31T06:26:09.742Z,260
2017-05-31T06:27:09.777Z,255
2017-05-31T06:28:09.197Z,245
2017-05-31T06:29:09.537Z,225
2017-05-31T06:30:09.567Z,285
2017-05-31T06:31:09.910Z,310
2017-05-31T06:32:09.630Z,470
2017-05-31T06:33:09.663Z,635
2017-05-31T06:34:10.001Z,305
2017-05-31T06:35:09.794Z,1005
2017-05-31T06:36:09.759Z,325
2017-05-31T06:37:10.094Z,265
2017-05-31T06:38:09.824Z,240
2017-05-31T06:39:24.776Z,330
2017-05-31T06:40:10.191Z,930
2017-05-31T06:41:24.845Z,290
2017-05-31T06:42:09.951Z,305
2017-05-31T06:43:09.977Z,375
2017-05-31T06:44:10.011Z,1165
2017-05-31T06:45:24.662Z,395
2017-05-31T06:46:10.381Z,310
2017-05-31T06:47:25.027Z,280
2017-05-31T06:48:10.437Z,315
2017-05-31T06:49:10.169Z,605
2017-05-31T06:50:10.505Z,1130
2017-05-31T06:51:25.150Z,1065
2017-05-31T06:52:25.182Z,960
2017-05-31T06:53:10.288Z,1060
2017-05-31T06:54:24.939Z,1005
2017-05-31T06:55:25.279Z,995
2017-05-31T06:56:10.687Z,930
2017-05-31T06:57:10.771Z,870
2017-05-31T06:58:10.456Z,1070
2017-05-31T07:00:10.817Z,960
2017-05-31T07:01:10.547Z,960
2017-05-31T07:02:10.327Z,850
2017-05-31T07:03:10.617Z,835
2017-05-31T07:04:25.573Z,805
2017-05-31T07:05:25.606Z,860
2017-05-31T07:06:25.645Z,420
2017-05-31T07:07:25.727Z,565
2017-05-31T07:08:25.711Z,325
2017-05-31T07:09:11.124Z,710
2017-05-31T07:10:25.781Z,665
2017-05-31T07:11:11.193Z,695
2017-05-31T07:12:11.285Z,700
2017-05-31T07:13:11.271Z,680
2017-05-31T07:14:11.304Z,685
2017-05-31T07:16:11.370Z,775
2017-05-31T07:17:11.405Z,860
2017-05-31T07:18:11.135Z,355
2017-05-31T07:19:11.470Z,290
2017-05-31T07:20:26.126Z,270
2017-05-31T07:21:10.936Z,380
2017-05-31T07:22:11.629Z,235
2017-05-31T07:23:26.230Z,175
2017-05-31T07:25:11.687Z,125
2017-05-31T07:26:11.418Z,100
2017-05-31T07:27:11.746Z,90
2017-05-31T07:28:11.798Z,90
2017-05-31T07:29:11.818Z,100
2017-05-31T07:30:11.547Z,110
2017-05-31T07:31:11.881Z,115
2017-05-31T07:32:11.302Z,120
2017-05-31T07:34:11.972Z,145
2017-05-31T07:35:11.853Z,160
2017-05-31T07:36:12.038Z,165
2017-05-31T07:37:11.767Z,180
2017-05-31T07:38:41.339Z,185
2017-05-31T07:40:12.172Z,185
2017-05-31T07:41:12.194Z,185
2017-05-31T07:42:26.849Z,230
2017-05-31T07:43:12.256Z,275
2017-05-31T07:44:11.981Z,560
2017-05-31T07:45:12.361Z,650
2017-05-31T07:46:12.346Z,950
2017-05-31T07:47:12.090Z,915
2017-05-31T07:48:12.104Z,895
2017-05-31T07:49:27.068Z,830
2017-05-31T07:50:27.111Z,845
2017-05-31T07:51:12.503Z,890
2017-05-31T07:52:12.228Z,865
2017-05-31T07:53:12.564Z,905
2017-05-31T07:54:12.294Z,895
2017-05-31T07:55:12.628Z,850
2017-05-31T07:56:12.355Z,280
2017-05-31T07:57:12.088Z,225
2017-05-31T07:58:27.348Z,775
2017-05-31T07:59:12.756Z,800
2017-05-31T08:00:11.877Z,780
2017-05-31T08:02:12.248Z,790
2017-05-31T08:04:12.924Z,800
2017-05-31T08:05:12.347Z,785
2017-05-31T08:06:12.379Z,775
2017-05-31T08:07:27.640Z,700
2017-05-31T08:08:12.450Z,325
2017-05-31T08:09:12.785Z,255
2017-05-31T08:10:27.437Z,220
2017-05-31T08:11:27.778Z,655
2017-05-31T08:12:27.202Z,640
2017-05-31T08:13:12.924Z,680
2017-05-31T08:14:27.874Z,680
2017-05-31T08:15:12.685Z,655
2017-05-31T08:16:12.730Z,660
2017-05-31T08:17:13.359Z,690
2017-05-31T08:18:12.834Z,310
2017-05-31T08:19:13.124Z,280
2017-05-31T08:20:12.854Z,250
2017-05-31T08:21:13.493Z,375
2017-05-31T08:22:13.538Z,615
2017-05-31T08:23:13.259Z,610
2017-05-31T08:24:13.290Z,310
2017-05-31T08:25:28.251Z,595
2017-05-31T08:26:28.282Z,585
2017-05-31T08:27:28.075Z,295
2017-05-31T08:28:13.730Z,220
2017-05-31T08:29:13.775Z,230
2017-05-31T08:30:28.423Z,240
2017-05-31T08:31:28.449Z,190
2017-05-31T08:32:13.562Z,150
2017-05-31T08:33:13.901Z,135
2017-05-31T08:34:28.301Z,165
2017-05-31T08:35:13.659Z,195
2017-05-31T08:37:13.727Z,370
2017-05-31T08:38:13.764Z,245
2017-05-31T08:39:14.097Z,190
2017-05-31T08:40:14.129Z,485
2017-05-31T08:41:29.040Z,480
2017-05-31T08:42:43.431Z,500
2017-05-31T08:43:14.229Z,485
2017-05-31T08:44:14.324Z,290
2017-05-31T08:45:28.915Z,510
2017-05-31T08:46:14.345Z,515
2017-05-31T08:49:28.739Z,505
2017-05-31T08:50:14.454Z,505
2017-05-31T08:51:28.502Z,510
2017-05-31T08:52:14.516Z,230
2017-05-31T08:53:28.867Z,525
2017-05-31T08:54:14.280Z,525
2017-05-31T08:55:14.689Z,350
2017-05-31T08:56:14.656Z,255
2017-05-31T08:57:29.001Z,220
2017-05-31T08:58:14.411Z,225
2017-05-31T09:00:14.481Z,215
2017-05-31T09:01:14.532Z,465
2017-05-31T09:02:14.544Z,190
2017-05-31T09:03:14.927Z,185
2017-05-31T09:04:14.606Z,405
2017-05-31T09:06:14.368Z,265
2017-05-31T09:07:14.402Z,290
2017-05-31T09:08:14.737Z,280
2017-05-31T09:09:15.072Z,450
2017-05-31T09:10:14.499Z,230
2017-05-31T09:11:14.536Z,210
2017-05-31T09:12:44.105Z,405
2017-05-31T09:13:29.823Z,295
2017-05-31T09:14:29.849Z,255
2017-05-31T09:15:29.886Z,235
2017-05-31T09:16:15.295Z,405
2017-05-31T09:17:29.346Z,240
2017-05-31T09:18:15.359Z,235
2017-05-31T09:19:15.091Z,210
2017-05-31T09:20:15.124Z,190
2017-05-31T09:21:14.852Z,175
2017-05-31T09:22:15.491Z,330
2017-05-31T09:23:29.838Z,355
2017-05-31T09:24:15.250Z,350
2017-05-31T09:25:15.583Z,350
2017-05-31T09:26:30.233Z,345
2017-05-31T09:27:15.046Z,345
2017-05-31T09:28:15.377Z,345
2017-05-31T09:29:15.405Z,345
2017-05-31T09:30:15.140Z,345
2017-05-31T09:31:30.394Z,350
2017-05-31T09:32:30.121Z,350
2017-05-31T09:34:15.876Z,355
2017-05-31T09:35:15.902Z,360
2017-05-31T09:36:15.631Z,365
2017-05-31T09:37:15.057Z,205
2017-05-31T09:38:15.698Z,220
2017-05-31T09:39:15.733Z,390
2017-05-31T09:40:16.071Z,410
2017-05-31T09:41:15.496Z,410
2017-05-31T09:42:16.129Z,245
2017-05-31T09:43:15.866Z,385
2017-05-31T09:44:16.199Z,375
2017-05-31T09:45:30.847Z,205
2017-05-31T09:46:16.317Z,200
2017-05-31T09:47:16.057Z,195
2017-05-31T09:48:16.023Z,210
2017-05-31T09:49:30.671Z,335
2017-05-31T09:50:16.395Z,260
2017-05-31T09:51:16.122Z,375
2017-05-31T09:52:16.457Z,380
2017-05-31T09:53:16.184Z,270
2017-05-31T09:54:16.522Z,230
2017-05-31T09:55:16.555Z,235
2017-05-31T09:56:16.281Z,230
2017-05-31T09:57:16.312Z,260
2017-05-31T09:58:16.340Z,375
2017-05-31T09:59:16.679Z,215
2017-05-31T10:00:16.410Z,215
2017-05-31T10:01:16.140Z,205
2017-05-31T10:02:16.474Z,345
2017-05-31T10:03:16.519Z,195
2017-05-31T10:04:16.843Z,170
2017-05-31T10:05:31.182Z,160
2017-05-31T10:06:16.297Z,155
2017-05-31T10:07:16.631Z,290
2017-05-31T10:08:16.966Z,165
2017-05-31T10:09:16.399Z,160
2017-05-31T10:11:16.804Z,140
2017-05-31T10:12:31.102Z,135
2017-05-31T10:13:16.812Z,130
2017-05-31T10:14:16.239Z,125
2017-05-31T10:15:16.581Z,275
2017-05-31T10:16:16.605Z,285
2017-05-31T10:17:17.245Z,290
2017-05-31T10:18:31.897Z,195
2017-05-31T10:19:17.305Z,185
2017-05-31T10:21:17.368Z,295
2017-05-31T10:22:17.401Z,170
2017-05-31T10:23:16.826Z,165
2017-05-31T10:24:17.162Z,300
2017-05-31T10:25:16.882Z,310
2017-05-31T10:26:31.834Z,320
2017-05-31T10:27:31.870Z,280
2017-05-31T10:28:17.279Z,235
2017-05-31T10:29:17.305Z,285
2017-05-31T10:30:17.701Z,300
2017-05-31T10:31:17.369Z,315
2017-05-31T10:32:17.097Z,315
2017-05-31T10:33:17.124Z,170
2017-05-31T10:34:32.078Z,220
2017-05-31T10:35:32.412Z,235
2017-05-31T10:37:17.555Z,170
2017-05-31T10:38:17.888Z,165
2017-05-31T10:39:17.312Z,230
2017-05-31T10:40:32.266Z,190
2017-05-31T10:41:17.375Z,295
2017-05-31T10:42:18.020Z,300
2017-05-31T10:43:17.737Z,270
2017-05-31T10:44:17.474Z,180
2017-05-31T10:45:17.500Z,190
2017-05-31T10:46:17.521Z,315
2017-05-31T10:47:32.477Z,225
2017-05-31T10:48:17.889Z,305
2017-05-31T10:49:47.458Z,295
2017-05-31T10:50:18.251Z,185
2017-05-31T10:51:17.979Z,285
2017-05-31T10:52:32.933Z,275
2017-05-31T10:53:17.430Z,265
2017-05-31T10:54:18.376Z,260
2017-05-31T10:55:18.099Z,250
2017-05-31T10:57:18.486Z,270
2017-05-31T10:58:18.200Z,275
2017-05-31T10:59:18.280Z,265
2017-05-31T11:00:18.561Z,205
2017-05-31T11:01:18.589Z,185
2017-05-31T11:02:18.319Z,185
2017-05-31T11:03:33.269Z,295
2017-05-31T11:04:18.676Z,275
2017-05-31T11:05:18.711Z,295
2017-05-31T11:06:18.134Z,290
2017-05-31T11:07:18.769Z,290
2017-05-31T11:08:48.041Z,245
2017-05-31T11:09:33.450Z,215
2017-05-31T11:10:18.859Z,300
2017-05-31T11:12:18.621Z,270
2017-05-31T11:14:18.981Z,235
2017-05-31T11:15:33.630Z,305
2017-05-31T11:16:19.048Z,260
2017-05-31T11:17:33.691Z,205
2017-05-31T11:18:33.719Z,215
2017-05-31T11:19:18.830Z,265
2017-05-31T11:20:18.864Z,240
2017-05-31T11:21:18.895Z,285
2017-05-31T11:22:18.923Z,285
2017-05-31T11:23:19.323Z,280
2017-05-31T11:24:33.901Z,265
2017-05-31T11:25:19.326Z,255
2017-05-31T11:26:19.347Z,245
2017-05-31T11:27:19.074Z,230
2017-05-31T11:28:19.105Z,225
2017-05-31T11:29:19.131Z,220
2017-05-31T11:30:19.165Z,215
2017-05-31T11:31:19.207Z,210
2017-05-31T11:32:33.844Z,205
2017-05-31T11:33:19.264Z,205
2017-05-31T11:34:19.286Z,205
2017-05-31T11:35:33.933Z,205
2017-05-31T11:36:34.267Z,200
2017-05-31T11:38:34.328Z,200
2017-05-31T11:39:19.437Z,200
2017-05-31T11:40:34.083Z,200
2017-05-31T11:41:19.867Z,200
2017-05-31T11:42:19.938Z,205
2017-05-31T11:43:19.861Z,210
2017-05-31T11:44:19.888Z,210
2017-05-31T11:45:19.916Z,160
2017-05-31T11:46:19.947Z,215
2017-05-31T11:47:19.673Z,215
2017-05-31T11:48:20.019Z,215
2017-05-31T11:49:34.357Z,220
2017-05-31T11:50:20.069Z,220
2017-05-31T11:51:19.796Z,225
2017-05-31T11:52:49.362Z,225
2017-05-31T11:53:19.860Z,230
2017-05-31T11:54:19.887Z,220
2017-05-31T11:55:34.534Z,150
2017-05-31T11:56:19.946Z,170
2017-05-31T11:57:19.973Z,175
2017-05-31T11:58:20.004Z,175
2017-05-31T11:59:20.333Z,245
2017-05-31T12:00:20.066Z,250
2017-05-31T12:01:20.096Z,240
2017-05-31T12:02:34.746Z,235
2017-05-31T12:03:34.771Z,230
2017-05-31T12:04:20.481Z,230
2017-05-31T12:05:49.447Z,160
2017-05-31T12:06:19.936Z,150
2017-05-31T12:07:20.386Z,145
2017-05-31T12:08:20.310Z,155
2017-05-31T12:09:35.252Z,160
2017-05-31T12:11:20.698Z,165
2017-05-31T12:13:20.755Z,160
2017-05-31T12:15:20.517Z,245
2017-05-31T12:16:20.842Z,250
2017-05-31T12:17:20.931Z,250
2017-05-31T12:18:20.899Z,245
2017-05-31T12:19:34.940Z,230
2017-05-31T12:20:35.576Z,220
2017-05-31T12:21:20.990Z,215
2017-05-31T12:22:49.951Z,190
2017-05-31T12:23:21.052Z,120
2017-05-31T12:24:35.692Z,200
2017-05-31T12:25:35.118Z,205
2017-05-31T12:26:21.135Z,210
2017-05-31T12:27:35.478Z,225
2017-05-31T12:28:21.247Z,225
2017-05-31T12:29:21.225Z,230
2017-05-31T12:30:20.957Z,225
2017-05-31T12:31:35.905Z,225
2017-05-31T12:32:21.321Z,230
2017-05-31T12:33:21.343Z,225
2017-05-31T12:34:21.374Z,225
2017-05-31T12:35:21.097Z,225
2017-05-31T12:36:21.180Z,225
2017-05-31T12:37:35.774Z,140
2017-05-31T12:38:36.107Z,145
2017-05-31T12:39:36.142Z,145
2017-05-31T12:40:36.170Z,205
2017-05-31T12:41:21.585Z,220
2017-05-31T12:42:21.607Z,220
2017-05-31T12:43:35.952Z,220
2017-05-31T12:44:36.284Z,220
2017-05-31T12:45:21.702Z,215
2017-05-31T12:46:21.728Z,135
2017-05-31T12:47:21.456Z,220
2017-05-31T12:49:21.510Z,215
2017-05-31T12:50:21.237Z,215
2017-05-31T12:51:21.572Z,215
2017-05-31T12:52:21.601Z,190
2017-05-31T12:53:21.935Z,215
2017-05-31T12:54:21.661Z,215
2017-05-31T12:55:21.689Z,190
2017-05-31T12:56:51.257Z,210
2017-05-31T12:57:22.049Z,205
2017-05-31T12:58:22.080Z,190
2017-05-31T13:00:21.890Z,200
2017-05-31T13:01:21.869Z,200
2017-05-31T13:02:21.900Z,195
2017-05-31T13:03:21.925Z,195
2017-05-31T13:04:21.955Z,200
2017-05-31T13:05:22.287Z,195
2017-05-31T13:06:36.328Z,195
2017-05-31T13:07:22.353Z,195
2017-05-31T13:08:21.765Z,195
2017-05-31T13:09:21.797Z,195
2017-05-31T13:10:36.447Z,200
2017-05-31T13:11:22.168Z,200
2017-05-31T13:12:37.111Z,200
2017-05-31T13:13:22.521Z,200
2017-05-31T13:14:22.550Z,195
2017-05-31T13:15:51.822Z,195
2017-05-31T13:16:22.613Z,195
2017-05-31T13:17:22.649Z,195
2017-05-31T13:18:22.670Z,195
2017-05-31T13:20:22.427Z,200
2017-05-31T13:21:22.501Z,210
2017-05-31T13:22:22.788Z,180
2017-05-31T13:23:22.822Z,145
2017-05-31T13:24:37.462Z,125
2017-05-31T13:25:22.881Z,210
2017-05-31T13:26:36.919Z,135
2017-05-31T13:27:37.552Z,120
2017-05-31T13:28:23.034Z,120
2017-05-31T13:29:37.611Z,200
2017-05-31T13:30:37.640Z,175
2017-05-31T13:31:23.057Z,125
2017-05-31T13:32:22.474Z,120
2017-05-31T13:33:22.505Z,120
2017-05-31T13:36:22.893Z,115
2017-05-31T13:37:37.899Z,120
2017-05-31T13:38:37.874Z,195
2017-05-31T13:39:37.597Z,180
2017-05-31T13:40:23.315Z,175
2017-05-31T13:41:23.375Z,190
2017-05-31T13:42:37.989Z,190
2017-05-31T13:43:52.635Z,185
2017-05-31T13:44:23.180Z,190
2017-05-31T13:45:23.466Z,190
2017-05-31T13:46:23.487Z,190
2017-05-31T13:47:23.517Z,190
2017-05-31T13:48:23.544Z,195
2017-05-31T13:49:23.573Z,195
2017-05-31T13:50:23.604Z,105
2017-05-31T13:51:23.382Z,190
2017-05-31T13:52:23.357Z,190
2017-05-31T13:53:23.385Z,185
2017-05-31T13:54:38.584Z,95
2017-05-31T13:55:23.441Z,100
2017-05-31T13:56:23.472Z,180
2017-05-31T13:57:23.198Z,95
2017-05-31T13:58:23.534Z,160
2017-05-31T13:59:23.568Z,185
2017-05-31T14:00:23.587Z,185
2017-05-31T14:01:23.315Z,185
2017-05-31T14:02:38.570Z,185
2017-05-31T14:03:23.676Z,180
2017-05-31T14:04:23.707Z,105
2017-05-31T14:05:23.734Z,105
2017-05-31T14:06:24.117Z,100
2017-05-31T14:07:23.799Z,120
2017-05-31T14:08:23.819Z,110
2017-05-31T14:09:23.543Z,195
2017-05-31T14:10:38.497Z,105
2017-05-31T14:11:23.909Z,150
2017-05-31T14:12:24.242Z,195
2017-05-31T14:13:24.264Z,190
2017-05-31T14:14:24.310Z,190
2017-05-31T14:15:38.990Z,190
2017-05-31T14:16:24.047Z,190
2017-05-31T14:17:24.076Z,195
2017-05-31T14:19:39.054Z,125
2017-05-31T14:20:24.165Z,190
2017-05-31T14:21:24.194Z,185
2017-05-31T14:22:24.521Z,140
2017-05-31T14:23:24.553Z,175
2017-05-31T14:24:24.276Z,130
2017-05-31T14:25:24.304Z,90
2017-05-31T14:26:24.341Z,175
2017-05-31T14:27:24.668Z,175
2017-05-31T14:28:39.008Z,90
2017-05-31T14:29:24.723Z,180
2017-05-31T14:30:39.371Z,185
2017-05-31T14:31:24.779Z,185
2017-05-31T14:32:24.809Z,190
2017-05-31T14:33:39.151Z,190
2017-05-31T14:34:38.878Z,105
2017-05-31T14:35:39.509Z,100
2017-05-31T14:36:24.923Z,100
2017-05-31T14:37:24.951Z,100
2017-05-31T14:38:24.980Z,170
2017-05-31T14:39:24.409Z,185
2017-05-31T14:40:25.036Z,110
2017-05-31T14:41:39.684Z,105
2017-05-31T14:42:24.794Z,190
2017-05-31T14:43:39.739Z,190
2017-05-31T14:44:25.155Z,190
2017-05-31T14:45:24.877Z,105
2017-05-31T14:46:24.916Z,180
2017-05-31T14:47:24.938Z,175
2017-05-31T14:48:24.958Z,105
2017-05-31T14:49:25.293Z,125
2017-05-31T14:50:39.939Z,160
2017-05-31T14:51:25.050Z,100
2017-05-31T14:52:25.124Z,165
2017-05-31T14:53:25.106Z,165
2017-05-31T14:55:25.161Z,90
2017-05-31T14:56:25.492Z,165
2017-05-31T14:57:25.214Z,125
2017-05-31T14:58:24.940Z,155
2017-05-31T14:59:39.890Z,165
2017-05-31T15:00:40.221Z,160
2017-05-31T15:01:40.248Z,160
2017-05-31T15:02:25.109Z,155